createdAt,value
2018-12-17T00:02:11.980Z,101207.05
2018-12-17T00:04:37.812Z,101211.62
2018-12-17T00:07:03.670Z,101215.88
2018-12-17T00:09:29.405Z,101217.07
2018-12-17T00:11:55.166Z,101219.13
2018-12-17T00:14:20.904Z,101229.96
2018-12-17T00:16:46.732Z,101234.80
2018-12-17T00:19:12.575Z,101229.11
2018-12-17T00:21:38.310Z,101230.31
2018-12-17T00:24:04.056Z,101233.83
2018-12-17T00:26:29.791Z,101235.16
2018-12-17T00:28:55.565Z,101224.88
2018-12-17T00:31:21.303Z,101224.66
2018-12-17T00:33:47.167Z,101230.70
2018-12-17T00:36:12.922Z,101238.29
2018-12-17T00:38:38.784Z,101231.31
2018-12-17T00:41:04.791Z,101241.55
2018-12-17T00:43:30.951Z,101242.78
2018-12-17T00:45:56.695Z,101242.20
2018-12-17T00:48:22.651Z,101244.94
2018-12-17T00:50:48.385Z,101244.85
2018-12-17T00:53:14.122Z,101247.84
2018-12-17T00:55:39.960Z,101261.23
2018-12-17T00:58:05.814Z,101259.07
2018-12-17T01:00:31.550Z,101260.14
2018-12-17T01:02:57.535Z,101262.31
2018-12-17T01:05:23.375Z,101256.64
2018-12-17T01:07:49.203Z,101254.45
2018-12-17T01:10:15.042Z,101255.90
2018-12-17T01:12:40.784Z,101263.52
2018-12-17T01:15:06.841Z,101265.80
2018-12-17T01:17:32.683Z,101268.45
2018-12-17T01:19:58.449Z,101273.29
2018-12-17T01:22:24.184Z,101271.09
2018-12-17T01:24:49.942Z,101274.09
2018-12-17T01:27:15.794Z,101269.03
2018-12-17T01:29:41.539Z,101267.25
2018-12-17T01:32:07.376Z,101265.77
2018-12-17T01:34:33.108Z,101273.27
2018-12-17T01:36:58.934Z,101268.66
2018-12-17T01:39:24.708Z,101267.47
2018-12-17T01:41:50.445Z,101266.73
2018-12-17T01:44:16.199Z,101269.97
2018-12-17T01:46:41.945Z,101271.66
2018-12-17T01:49:07.698Z,101267.31
2018-12-17T01:51:33.548Z,101272.53
2018-12-17T01:53:59.287Z,101273.73
2018-12-17T01:56:25.054Z,101267.00
2018-12-17T01:58:50.786Z,101257.34
2018-12-17T02:01:16.530Z,101261.30
2018-12-17T02:03:42.295Z,101258.74
2018-12-17T02:06:08.147Z,101270.80
2018-12-17T02:08:34.020Z,101270.55
2018-12-17T02:10:59.980Z,101267.50
2018-12-17T02:13:25.716Z,101271.94
2018-12-17T02:15:51.564Z,101280.79
2018-12-17T02:18:17.403Z,101283.56
2018-12-17T02:20:43.163Z,101278.39
2018-12-17T02:23:08.903Z,101265.59
2018-12-17T02:25:34.658Z,101279.71
2018-12-17T02:28:00.587Z,101275.36
2018-12-17T02:30:26.320Z,101270.86
2018-12-17T02:32:52.170Z,101279.47
2018-12-17T02:35:18.056Z,101282.21
2018-12-17T02:37:43.828Z,101283.69
2018-12-17T02:40:09.583Z,101286.71
2018-12-17T02:42:35.388Z,101288.28
2018-12-17T02:45:01.487Z,101292.60
2018-12-17T02:47:27.210Z,101299.11
2018-12-17T02:49:52.959Z,101292.17
2018-12-17T02:52:18.700Z,101287.08
2018-12-17T02:54:51.320Z,101286.34
2018-12-17T02:57:17.077Z,101293.93
2018-12-17T02:59:42.836Z,101299.63
2018-12-17T03:02:08.804Z,101292.97
2018-12-17T03:04:34.624Z,101301.76
2018-12-17T03:07:00.368Z,101309.99
2018-12-17T03:09:26.101Z,101317.21
2018-12-17T03:11:51.944Z,101313.23
2018-12-17T03:14:17.694Z,101313.60
2018-12-17T03:16:43.449Z,101322.05
2018-12-17T03:19:09.194Z,101314.77
2018-12-17T03:21:35.050Z,101308.73
2018-12-17T03:24:01.009Z,101319.34
2018-12-17T03:26:26.943Z,101319.49
2018-12-17T03:28:52.696Z,101326.13
2018-12-17T03:31:18.449Z,101330.97
2018-12-17T03:33:44.392Z,101324.09
2018-12-17T03:36:10.147Z,101325.96
2018-12-17T03:38:35.898Z,101330.93
2018-12-17T03:41:01.966Z,101335.40
2018-12-17T03:43:27.706Z,101346.54
2018-12-17T03:45:53.560Z,101347.00
2018-12-17T03:48:19.431Z,101346.38
2018-12-17T03:50:45.423Z,101350.73
2018-12-17T03:53:11.167Z,101349.66
2018-12-17T03:55:36.899Z,101349.03
2018-12-17T03:58:02.776Z,101352.67
2018-12-17T04:00:28.515Z,101347.25
2018-12-17T04:02:54.281Z,101354.99
2018-12-17T04:05:20.021Z,101354.87
2018-12-17T04:07:45.760Z,101356.56
2018-12-17T04:10:11.693Z,101362.89
2018-12-17T04:12:37.527Z,101365.64
2018-12-17T04:15:04.457Z,101367.05
2018-12-17T04:17:30.191Z,101363.16
2018-12-17T04:19:56.014Z,101364.61
2018-12-17T04:22:21.838Z,101358.72
2018-12-17T04:24:47.570Z,101357.48
2018-12-17T04:27:13.304Z,101363.41
2018-12-17T04:29:39.055Z,101360.75
2018-12-17T04:32:04.801Z,101371.95
2018-12-17T04:34:30.665Z,101366.06
2018-12-17T04:36:56.389Z,101373.64
2018-12-17T04:39:22.328Z,101379.08
2018-12-17T04:41:48.047Z,101376.66
2018-12-17T04:44:13.782Z,101379.20
2018-12-17T04:46:39.495Z,101370.41
2018-12-17T04:49:05.219Z,101375.92
2018-12-17T04:51:31.160Z,101370.98
2018-12-17T04:53:56.893Z,101374.27
2018-12-17T04:56:22.810Z,101383.42
2018-12-17T04:58:48.534Z,101392.28
2018-12-17T05:01:14.246Z,101388.77
2018-12-17T05:03:39.976Z,101392.34
2018-12-17T05:06:05.794Z,101397.92
2018-12-17T05:08:31.630Z,101401.08
2018-12-17T05:10:57.351Z,101403.48
2018-12-17T05:13:23.079Z,101403.27
2018-12-17T05:15:48.799Z,101401.94
2018-12-17T05:18:14.519Z,101410.94
2018-12-17T05:20:40.243Z,101406.87
2018-12-17T05:23:05.984Z,101410.23
2018-12-17T05:25:31.720Z,101416.37
2018-12-17T05:27:57.462Z,101411.64
2018-12-17T05:30:23.182Z,101409.58
2018-12-17T05:32:48.911Z,101418.73
2018-12-17T05:35:14.658Z,101422.70
2018-12-17T05:37:40.383Z,101431.03
2018-12-17T05:40:06.414Z,101431.28
2018-12-17T05:42:32.135Z,101438.75
2018-12-17T05:44:57.876Z,101442.89
2018-12-17T05:47:23.603Z,101444.97
2018-12-17T05:49:49.340Z,101444.80
2018-12-17T05:52:15.159Z,101454.00
2018-12-17T05:54:40.997Z,101448.69
2018-12-17T05:57:06.718Z,101451.39
2018-12-17T05:59:32.446Z,101461.16
2018-12-17T06:01:58.174Z,101455.03
2018-12-17T06:04:23.991Z,101457.97
2018-12-17T06:06:49.715Z,101461.25
2018-12-17T06:09:22.594Z,101473.39
2018-12-17T06:11:48.519Z,101468.59
2018-12-17T06:14:14.243Z,101473.23
2018-12-17T06:16:39.959Z,101466.72
2018-12-17T06:19:05.777Z,101462.41
2018-12-17T06:21:31.507Z,101471.91
2018-12-17T06:23:57.255Z,101469.86
2018-12-17T06:26:23.090Z,101467.34
2018-12-17T06:28:48.811Z,101472.81
2018-12-17T06:31:14.634Z,101473.98
2018-12-17T06:33:40.447Z,101475.26
2018-12-17T06:36:06.271Z,101482.68
2018-12-17T06:38:31.994Z,101496.20
2018-12-17T06:40:57.827Z,101492.50
2018-12-17T06:43:23.551Z,101496.31
2018-12-17T06:45:49.287Z,101498.72
2018-12-17T06:48:17.209Z,101503.52
2018-12-17T06:50:42.842Z,101505.72
2018-12-17T06:53:08.575Z,101508.72
2018-12-17T06:55:34.399Z,101511.16
2018-12-17T06:58:00.525Z,101518.28
2018-12-17T07:00:26.293Z,101518.66
2018-12-17T07:02:52.075Z,101520.94
2018-12-17T07:05:17.897Z,101523.09
2018-12-17T07:07:43.621Z,101532.30
2018-12-17T07:10:09.455Z,101526.66
2018-12-17T07:12:35.182Z,101533.09
2018-12-17T07:15:00.990Z,101535.08
2018-12-17T07:17:26.819Z,101547.77
2018-12-17T07:19:54.137Z,101547.97
2018-12-17T07:22:20.098Z,101552.33
2018-12-17T07:24:45.818Z,101550.25
2018-12-17T07:27:11.599Z,101551.91
2018-12-17T07:29:37.422Z,101551.05
2018-12-17T07:32:03.375Z,101555.09
2018-12-17T07:34:29.311Z,101560.66
2018-12-17T07:36:55.964Z,101562.73
2018-12-17T07:39:21.798Z,101566.77
2018-12-17T07:41:47.638Z,101564.31
2018-12-17T07:44:13.466Z,101568.58
2018-12-17T07:46:39.267Z,101572.33
2018-12-17T07:49:05.107Z,101576.42
2018-12-17T07:51:30.889Z,101576.47
2018-12-17T07:53:56.686Z,101583.73
2018-12-17T07:56:22.515Z,101583.11
2018-12-17T07:58:48.359Z,101584.12
2018-12-17T08:01:14.112Z,101578.91
2018-12-17T08:03:39.831Z,101586.09
2018-12-17T08:06:05.669Z,101591.44
2018-12-17T08:08:35.371Z,101588.95
2018-12-17T08:10:59.243Z,101588.00
2018-12-17T08:13:25.075Z,101595.59
2018-12-17T08:15:50.795Z,101593.89
2018-12-17T08:18:20.879Z,101593.52
2018-12-17T08:20:47.498Z,101586.09
2018-12-17T08:23:13.330Z,101582.80
2018-12-17T08:25:39.057Z,101584.64
2018-12-17T08:28:04.899Z,101588.72
2018-12-17T08:30:30.718Z,101598.55
2018-12-17T08:32:56.447Z,101597.43
2018-12-17T08:35:22.162Z,101596.84
2018-12-17T08:37:47.914Z,101597.43
2018-12-17T08:40:13.649Z,101600.25
2018-12-17T08:42:39.379Z,101603.39
2018-12-17T08:45:05.254Z,101601.95
2018-12-17T08:47:30.995Z,101603.16
2018-12-17T08:49:56.710Z,101613.73
2018-12-17T08:52:22.458Z,101616.37
2018-12-17T08:54:48.486Z,101614.68
2018-12-17T08:57:14.221Z,101619.95
2018-12-17T08:59:39.937Z,101616.48
2018-12-17T09:02:05.765Z,101619.09
2018-12-17T09:04:31.589Z,101616.27
2018-12-17T09:06:57.298Z,101613.20
2018-12-17T09:09:23.068Z,101615.86
2018-12-17T09:11:48.910Z,101611.55
2018-12-17T09:14:14.637Z,101613.75
2018-12-17T09:16:40.379Z,101619.64
2018-12-17T09:19:08.136Z,101619.92
2018-12-17T09:21:33.870Z,101619.06
2018-12-17T09:23:59.699Z,101618.59
2018-12-17T09:26:25.542Z,101616.69
2018-12-17T09:28:51.263Z,101619.10
2018-12-17T09:31:16.983Z,101612.63
2018-12-17T09:33:42.999Z,101611.42
2018-12-17T09:36:08.822Z,101615.12
2018-12-17T09:38:34.555Z,101628.02
2018-12-17T09:41:00.396Z,101630.97
2018-12-17T09:43:26.127Z,101645.94
2018-12-17T09:45:51.962Z,101639.98
2018-12-17T09:48:17.835Z,101635.99
2018-12-17T09:50:43.554Z,101630.09
2018-12-17T09:53:09.376Z,101644.45
2018-12-17T09:55:36.361Z,101645.70
2018-12-17T09:58:02.544Z,101646.23
2018-12-17T10:00:28.284Z,101648.19
2018-12-17T10:02:54.059Z,101648.69
2018-12-17T10:05:19.887Z,101648.89
2018-12-17T10:07:45.638Z,101638.93
2018-12-17T10:10:11.467Z,101641.25
2018-12-17T10:12:37.183Z,101641.41
2018-12-17T10:15:03.816Z,101636.47
2018-12-17T10:17:29.538Z,101622.39
2018-12-17T10:19:55.271Z,101630.73
2018-12-17T10:22:20.997Z,101631.17
2018-12-17T10:24:46.846Z,101629.91
2018-12-17T10:27:12.670Z,101636.83
2018-12-17T10:29:38.506Z,101634.41
2018-12-17T10:32:04.347Z,101631.97
2018-12-17T10:34:30.197Z,101631.27
2018-12-17T10:36:55.918Z,101623.69
2018-12-17T10:39:21.739Z,101630.98
2018-12-17T10:41:48.142Z,101622.20
2018-12-17T10:44:14.220Z,101620.41
2018-12-17T10:46:39.979Z,101622.02
2018-12-17T10:49:05.711Z,101618.16
2018-12-17T10:51:32.137Z,101620.81
2018-12-17T10:53:57.883Z,101620.59
2018-12-17T10:56:23.632Z,101622.88
2018-12-17T10:58:49.351Z,101627.09
2018-12-17T11:01:21.469Z,101631.59
2018-12-17T11:03:49.538Z,101626.66
2018-12-17T11:06:16.731Z,101630.77
2018-12-17T11:08:42.646Z,101636.23
2018-12-17T11:11:08.374Z,101637.56
2018-12-17T11:13:34.712Z,101643.09
2018-12-17T11:16:01.177Z,101636.08
2018-12-17T11:18:27.035Z,101638.27
2018-12-17T11:20:52.767Z,101632.83
2018-12-17T11:23:18.617Z,101629.59
2018-12-17T11:25:44.433Z,101619.59
2018-12-17T11:28:10.254Z,101625.16
2018-12-17T11:30:36.315Z,101623.36
2018-12-17T11:33:02.036Z,101632.66
2018-12-17T11:35:27.888Z,101623.14
2018-12-17T11:37:53.615Z,101626.16
2018-12-17T11:40:19.339Z,101620.94
2018-12-17T11:42:45.327Z,101612.48
2018-12-17T11:45:11.199Z,101617.17
2018-12-17T11:47:36.928Z,101620.33
2018-12-17T11:50:04.279Z,101621.44
2018-12-17T11:52:30.001Z,101631.11
2018-12-17T11:54:55.851Z,101632.66
2018-12-17T11:57:27.479Z,101628.45
2018-12-17T11:59:53.247Z,101633.52
2018-12-17T12:02:19.074Z,101635.57
2018-12-17T12:04:44.806Z,101643.42
2018-12-17T12:07:10.533Z,101644.66
2018-12-17T12:09:36.260Z,101644.41
2018-12-17T12:12:02.086Z,101645.22
2018-12-17T12:14:27.806Z,101644.61
2018-12-17T12:16:53.536Z,101650.56
2018-12-17T12:19:19.272Z,101648.77
2018-12-17T12:21:45.004Z,101643.82
2018-12-17T12:24:10.723Z,101658.30
2018-12-17T12:26:36.433Z,101656.97
2018-12-17T12:29:02.276Z,101654.34
2018-12-17T12:31:28.006Z,101652.51
2018-12-17T12:33:53.824Z,101648.05
2018-12-17T12:36:19.570Z,101649.73
2018-12-17T12:38:45.407Z,101651.87
2018-12-17T12:41:11.240Z,101656.23
2018-12-17T12:43:37.071Z,101655.02
2018-12-17T12:46:02.897Z,101659.69
2018-12-17T12:48:28.620Z,101653.67
2018-12-17T12:50:54.351Z,101650.02
2018-12-17T12:55:52.709Z,101649.08
2018-12-17T12:58:18.437Z,101651.20
2018-12-17T13:00:44.159Z,101656.71
2018-12-17T13:03:09.890Z,101655.28
2018-12-17T13:05:35.621Z,101659.15
2018-12-17T13:08:01.347Z,101668.66
2018-12-17T13:10:27.170Z,101658.87
2018-12-17T13:12:53.027Z,101671.55
2018-12-17T13:15:18.946Z,101669.42
2018-12-17T13:17:45.598Z,101671.25
2018-12-17T13:20:11.628Z,101670.14
2018-12-17T13:22:37.453Z,101667.45
2018-12-17T13:25:04.186Z,101661.20
2018-12-17T13:27:29.914Z,101659.88
2018-12-17T13:29:55.623Z,101655.99
2018-12-17T13:32:21.351Z,101658.20
2018-12-17T13:34:47.095Z,101661.95
2018-12-17T13:37:12.818Z,101669.81
2018-12-17T13:39:38.838Z,101672.97
2018-12-17T13:42:04.566Z,101665.09
2018-12-17T13:44:30.280Z,101665.47
2018-12-17T13:46:56.098Z,101683.98
2018-12-17T13:49:21.958Z,101672.70
2018-12-17T13:51:53.826Z,101673.44
2018-12-17T13:54:19.546Z,101672.72
2018-12-17T13:56:45.271Z,101674.77
2018-12-17T13:59:11.017Z,101677.58
2018-12-17T14:01:36.735Z,101678.14
2018-12-17T14:04:02.574Z,101679.80
2018-12-17T14:06:28.382Z,101678.19
2018-12-17T14:08:54.205Z,101679.16
2018-12-17T14:11:19.924Z,101685.59
2018-12-17T14:13:45.743Z,101684.77
2018-12-17T14:16:13.474Z,101685.73
2018-12-17T14:18:45.357Z,101686.84
2018-12-17T14:21:17.192Z,101689.85
2018-12-17T14:23:42.918Z,101699.02
2018-12-17T14:26:08.765Z,101696.20
2018-12-17T14:28:34.485Z,101699.02
2018-12-17T14:31:00.298Z,101696.91
2018-12-17T14:33:26.011Z,101701.41
2018-12-17T14:35:57.845Z,101700.91
2018-12-17T14:38:23.604Z,101695.22
2018-12-17T14:40:49.435Z,101699.97
2018-12-17T14:43:15.307Z,101702.88
2018-12-17T14:45:41.097Z,101709.80
2018-12-17T14:48:06.935Z,101714.26
2018-12-17T14:50:32.734Z,101712.93
2018-12-17T14:53:05.490Z,101718.87
2018-12-17T14:55:31.214Z,101720.10
2018-12-17T14:57:57.030Z,101715.00
2018-12-17T15:00:22.858Z,101715.80
2018-12-17T15:02:48.590Z,101722.83
2018-12-17T15:05:14.311Z,101722.27
2018-12-17T15:07:40.020Z,101724.68
2018-12-17T15:10:06.044Z,101728.89
2018-12-17T15:12:31.855Z,101730.74
2018-12-17T15:14:57.570Z,101734.86
2018-12-17T15:17:23.374Z,101727.02
2018-12-17T15:19:49.210Z,101728.84
2018-12-17T15:22:15.019Z,101727.52
2018-12-17T15:24:40.858Z,101723.62
2018-12-17T15:27:06.674Z,101718.45
2018-12-17T15:29:32.619Z,101711.06
2018-12-17T15:31:58.434Z,101709.36
2018-12-17T15:34:24.167Z,101702.11
2018-12-17T15:36:49.890Z,101698.62
2018-12-17T15:39:15.728Z,101703.08
2018-12-17T15:41:41.429Z,101703.09
2018-12-17T15:44:07.146Z,101714.70
2018-12-17T15:46:32.880Z,101724.73
2018-12-17T15:48:58.810Z,101733.92
2018-12-17T15:51:24.522Z,101731.26
2018-12-17T15:53:50.246Z,101730.42
2018-12-17T15:56:15.955Z,101741.87
2018-12-17T15:58:41.772Z,101740.08
2018-12-17T16:01:07.605Z,101742.98
2018-12-17T16:03:33.311Z,101745.19
2018-12-17T16:05:59.038Z,101752.52
2018-12-17T16:08:31.743Z,101753.23
2018-12-17T16:10:57.573Z,101757.94
2018-12-17T16:13:23.274Z,101756.30
2018-12-17T16:15:49.098Z,101754.91
2018-12-17T16:18:14.903Z,101757.20
2018-12-17T16:20:40.658Z,101757.16
2018-12-17T16:23:06.442Z,101750.67
2018-12-17T16:25:32.366Z,101761.77
2018-12-17T16:27:58.066Z,101753.08
2018-12-17T16:30:23.782Z,101757.56
2018-12-17T16:32:49.603Z,101757.01
2018-12-17T16:35:15.322Z,101771.52
2018-12-17T16:37:47.951Z,101779.25
2018-12-17T16:40:13.793Z,101786.86
2018-12-17T16:42:39.670Z,101794.59
2018-12-17T16:45:06.602Z,101791.10
2018-12-17T16:47:32.421Z,101790.88
2018-12-17T16:49:58.178Z,101797.10
2018-12-17T16:52:24.002Z,101795.16
2018-12-17T16:54:49.714Z,101788.50
2018-12-17T16:57:15.425Z,101792.86
2018-12-17T16:59:41.145Z,101799.64
2018-12-17T17:02:06.969Z,101794.10
2018-12-17T17:04:32.678Z,101800.10
2018-12-17T17:06:58.393Z,101781.72
2018-12-17T17:09:24.214Z,101789.61
2018-12-17T17:11:50.134Z,101783.92
2018-12-17T17:14:15.842Z,101788.06
2018-12-17T17:16:41.692Z,101784.91
2018-12-17T17:19:07.516Z,101794.74
2018-12-17T17:21:33.234Z,101801.05
2018-12-17T17:23:59.051Z,101806.00
2018-12-17T17:26:24.776Z,101804.09
2018-12-17T17:28:50.588Z,101812.17
2018-12-17T17:31:16.321Z,101819.81
2018-12-17T17:33:49.006Z,101817.24
2018-12-17T17:36:21.722Z,101817.24
2018-12-17T17:38:47.439Z,101817.39
2018-12-17T17:41:13.146Z,101805.34
2018-12-17T17:43:38.850Z,101829.47
2018-12-17T17:46:04.680Z,101839.38
2018-12-17T17:48:30.403Z,101838.79
2018-12-17T17:50:56.263Z,101844.83
2018-12-17T17:53:22.191Z,101833.68
2018-12-17T17:55:47.931Z,101843.02
2018-12-17T17:58:13.661Z,101844.23
2018-12-17T18:00:39.382Z,101851.23
2018-12-17T18:03:05.117Z,101851.97
2018-12-17T18:05:30.975Z,101850.02
2018-12-17T18:07:56.703Z,101844.83
2018-12-17T18:10:22.414Z,101845.32
2018-12-17T18:12:48.130Z,101849.16
2018-12-17T18:15:13.954Z,101848.69
2018-12-17T18:17:39.710Z,101840.58
2018-12-17T18:20:05.542Z,101836.22
2018-12-17T18:22:31.759Z,101835.02
2018-12-17T18:24:57.495Z,101840.70
2018-12-17T18:27:23.226Z,101835.51
2018-12-17T18:29:48.946Z,101833.34
2018-12-17T18:32:14.929Z,101841.48
2018-12-17T18:34:40.794Z,101837.09
2018-12-17T18:37:06.606Z,101843.22
2018-12-17T18:39:32.439Z,101849.03
2018-12-17T18:41:58.258Z,101850.73
2018-12-17T18:44:24.081Z,101847.55
2018-12-17T18:46:50.012Z,101848.91
2018-12-17T18:49:15.869Z,101848.07
2018-12-17T18:51:41.690Z,101849.74
2018-12-17T18:54:07.526Z,101853.27
2018-12-17T18:56:33.347Z,101850.23
2018-12-17T18:58:59.079Z,101851.56
2018-12-17T19:01:24.898Z,101857.63
2018-12-17T19:03:50.624Z,101852.19
2018-12-17T19:06:16.452Z,101857.42
2018-12-17T19:08:42.228Z,101854.02
2018-12-17T19:11:08.006Z,101851.45
2018-12-17T19:13:33.734Z,101854.11
2018-12-17T19:15:59.662Z,101857.27
2018-12-17T19:18:25.490Z,101858.97
2018-12-17T19:20:51.280Z,101856.52
2018-12-17T19:23:17.003Z,101859.06
2018-12-17T19:25:42.760Z,101864.04
2018-12-17T19:28:08.555Z,101860.88
2018-12-17T19:30:34.270Z,101864.29
2018-12-17T19:33:00.120Z,101864.29
2018-12-17T19:35:25.850Z,101866.83
2018-12-17T19:37:51.562Z,101870.73
2018-12-17T19:40:17.387Z,101870.82
2018-12-17T19:42:43.211Z,101866.37
2018-12-17T19:45:09.173Z,101874.10
2018-12-17T19:47:34.998Z,101873.77
2018-12-17T19:50:00.726Z,101878.97
2018-12-17T19:52:26.490Z,101872.77
2018-12-17T19:54:52.214Z,101874.75
2018-12-17T19:57:17.930Z,101876.67
2018-12-17T19:59:43.697Z,101877.87
2018-12-17T20:02:09.562Z,101885.41
2018-12-17T20:04:41.541Z,101879.83
2018-12-17T20:07:07.290Z,101882.62
2018-12-17T20:09:33.042Z,101879.00
2018-12-17T20:11:58.875Z,101875.00
2018-12-17T20:14:24.756Z,101879.95
2018-12-17T20:16:50.470Z,101877.91
2018-12-17T20:19:16.194Z,101874.41
2018-12-17T20:21:42.015Z,101872.49
2018-12-17T20:24:07.744Z,101874.66
2018-12-17T20:26:33.563Z,101879.98
2018-12-17T20:28:59.275Z,101880.14
2018-12-17T20:31:24.991Z,101879.64
2018-12-17T20:33:50.714Z,101879.27
2018-12-17T20:36:16.438Z,101881.72
2018-12-17T20:38:42.159Z,101888.53
2018-12-17T20:41:07.886Z,101887.56
2018-12-17T20:43:33.699Z,101888.31
2018-12-17T20:45:59.441Z,101890.97
2018-12-17T20:48:25.158Z,101891.06
2018-12-17T20:50:51.020Z,101889.52
2018-12-17T20:53:16.918Z,101890.84
2018-12-17T20:55:42.887Z,101886.61
2018-12-17T20:58:10.404Z,101886.73
2018-12-17T21:00:36.563Z,101887.37
2018-12-17T21:03:02.768Z,101886.73
2018-12-17T21:05:28.611Z,101879.70
2018-12-17T21:07:54.545Z,101885.40
2018-12-17T21:10:20.388Z,101881.19
2018-12-17T21:12:46.142Z,101878.06
2018-12-17T21:15:12.073Z,101882.52
2018-12-17T21:17:37.908Z,101881.06
2018-12-17T21:20:04.455Z,101882.30
2018-12-17T21:22:30.621Z,101876.72
2018-12-17T21:24:56.369Z,101879.27
2018-12-17T21:27:22.093Z,101872.48
2018-12-17T21:29:48.257Z,101843.08
2018-12-17T21:32:13.992Z,101867.65
2018-12-17T21:34:39.802Z,101860.86
2018-12-17T21:37:05.598Z,101858.11
2018-12-17T21:39:31.572Z,101850.70
2018-12-17T21:41:57.740Z,101854.58
2018-12-17T21:44:23.919Z,101853.11
2018-12-17T21:46:49.797Z,101853.27
2018-12-17T21:49:16.144Z,101850.01
2018-12-17T21:51:41.875Z,101847.13
2018-12-17T21:54:07.602Z,101848.18
2018-12-17T21:56:33.309Z,101854.74
2018-12-17T21:58:59.035Z,101853.78
2018-12-17T22:01:24.746Z,101857.19
2018-12-17T22:03:50.470Z,101863.22
2018-12-17T22:06:16.750Z,101856.56
2018-12-17T22:08:43.059Z,101858.27
2018-12-17T22:11:09.319Z,101863.87
2018-12-17T22:13:35.259Z,101872.23
2018-12-17T22:16:01.330Z,101871.95
2018-12-17T22:18:27.923Z,101878.24
2018-12-17T22:20:54.255Z,101875.36
2018-12-17T22:23:20.130Z,101880.47
2018-12-17T22:25:45.913Z,101876.47
2018-12-17T22:28:12.016Z,101879.50
2018-12-17T22:30:38.165Z,101878.05
2018-12-17T22:33:04.510Z,101878.78
2018-12-17T22:35:30.632Z,101878.19
2018-12-17T22:37:56.844Z,101883.52
2018-12-17T22:40:23.148Z,101883.39
2018-12-17T22:42:49.243Z,101888.63
2018-12-17T22:45:15.793Z,101892.13
2018-12-17T22:47:41.592Z,101894.42
2018-12-17T22:50:08.241Z,101890.42
2018-12-17T22:52:34.416Z,101887.66
2018-12-17T22:55:00.533Z,101895.03
2018-12-17T22:57:26.581Z,101889.23
2018-12-17T22:59:52.577Z,101891.77
2018-12-17T23:02:18.837Z,101890.94
2018-12-17T23:04:45.970Z,101891.67
2018-12-17T23:07:12.410Z,101893.12
2018-12-17T23:09:50.738Z,101887.05
2018-12-17T23:12:29.057Z,101886.83
2018-12-17T23:15:07.272Z,101886.10
2018-12-17T23:17:38.786Z,101883.56
2018-12-17T23:20:05.883Z,101876.67
2018-12-17T23:22:31.797Z,101869.50
2018-12-17T23:24:57.566Z,101881.78
2018-12-17T23:27:23.398Z,101870.86
2018-12-17T23:29:49.496Z,101877.16
2018-12-17T23:32:15.504Z,101871.50
2018-12-17T23:34:41.326Z,101871.83
2018-12-17T23:37:07.043Z,101875.73
2018-12-17T23:39:33.284Z,101875.97
2018-12-17T23:42:00.646Z,101874.88
2018-12-17T23:44:26.504Z,101869.81
2018-12-17T23:46:52.441Z,101873.45
2018-12-17T23:49:18.153Z,101874.92
2018-12-17T23:51:43.984Z,101871.77
2018-12-17T23:54:09.798Z,101876.00
2018-12-17T23:56:35.505Z,101870.80
2018-12-17T23:59:01.222Z,101875.91
